createdAt,value
2023-04-23T00:01:44.996Z,7.25
2023-04-23T00:04:19.581Z,7.40
2023-04-23T00:06:50.966Z,7.68
2023-04-23T00:09:22.235Z,7.22
2023-04-23T00:11:53.549Z,8.32
2023-04-23T00:14:24.963Z,7.85
2023-04-23T00:16:56.570Z,9.05
2023-04-23T00:19:30.083Z,8.02
2023-04-23T00:22:00.789Z,7.85
2023-04-23T00:24:32.329Z,7.78
2023-04-23T00:27:03.117Z,7.32
2023-04-23T00:29:33.896Z,6.60
2023-04-23T00:32:05.058Z,6.90
2023-04-23T00:34:38.526Z,6.53
2023-04-23T00:37:09.267Z,6.53
2023-04-23T00:39:41.077Z,6.28
2023-04-23T00:42:14.182Z,6.18
2023-04-23T00:44:46.739Z,7.05
2023-04-23T00:47:18.386Z,5.80
2023-04-23T00:49:55.915Z,6.60
2023-04-23T00:52:26.618Z,7.22
2023-04-23T00:54:57.435Z,8.50
2023-04-23T00:57:28.810Z,8.98
2023-04-23T01:00:00.055Z,8.50
2023-04-23T01:02:32.590Z,8.13
2023-04-23T01:05:08.112Z,7.07
2023-04-23T01:10:11.511Z,6.72
2023-04-23T01:12:42.320Z,6.03
2023-04-23T01:15:14.045Z,5.63
2023-04-23T01:17:44.740Z,5.97
2023-04-23T01:20:18.288Z,6.03
2023-04-23T01:22:51.580Z,6.28
2023-04-23T01:25:22.657Z,5.97
2023-04-23T01:27:53.470Z,6.15
2023-04-23T01:30:25.145Z,5.47
2023-04-23T01:32:57.438Z,5.68
2023-04-23T01:35:29.097Z,6.60
2023-04-23T01:38:03.862Z,5.07
2023-04-23T01:40:34.706Z,5.53
2023-04-23T01:43:05.577Z,5.63
2023-04-23T01:45:36.604Z,5.10
2023-04-23T01:48:07.727Z,5.43
2023-04-23T01:50:38.839Z,5.47
2023-04-23T01:53:12.205Z,5.75
2023-04-23T01:55:44.460Z,5.47
2023-04-23T01:58:15.196Z,5.45
2023-04-23T02:00:46.238Z,5.82
2023-04-23T02:03:17.170Z,5.45
2023-04-23T02:05:48.100Z,6.10
2023-04-23T02:08:21.452Z,5.55
2023-04-23T02:10:52.307Z,5.35
2023-04-23T02:13:23.220Z,5.70
2023-04-23T02:15:54.208Z,5.45
2023-04-23T02:18:25.084Z,5.78
2023-04-23T02:20:57.839Z,5.70
2023-04-23T02:23:31.354Z,6.53
2023-04-23T02:26:02.113Z,5.50
2023-04-23T02:28:32.923Z,6.45
2023-04-23T02:31:03.729Z,6.30
2023-04-23T02:33:34.495Z,5.68
2023-04-23T02:36:05.768Z,5.18
2023-04-23T02:38:41.872Z,5.72
2023-04-23T02:41:12.612Z,5.95
2023-04-23T02:43:43.540Z,5.45
2023-04-23T02:46:14.362Z,6.13
2023-04-23T02:48:45.427Z,5.60
2023-04-23T02:51:17.122Z,6.60
2023-04-23T02:53:50.850Z,6.45
2023-04-23T02:56:21.610Z,6.18
2023-04-23T02:58:52.723Z,6.03
2023-04-23T03:01:24.206Z,5.93
2023-04-23T03:03:55.350Z,5.60
2023-04-23T03:06:26.598Z,7.32
2023-04-23T03:09:00.046Z,5.25
2023-04-23T03:11:31.270Z,6.00
2023-04-23T03:14:02.448Z,5.90
2023-04-23T03:16:34.366Z,6.03
2023-04-23T03:19:05.482Z,5.78
2023-04-23T03:21:36.431Z,5.35
2023-04-23T03:24:10.437Z,5.75
2023-04-23T03:26:41.275Z,5.43
2023-04-23T03:29:13.292Z,5.88
2023-04-23T03:31:44.208Z,5.57
2023-04-23T03:34:15.308Z,6.07
2023-04-23T03:36:48.948Z,6.13
2023-04-23T03:39:23.352Z,4.88
2023-04-23T03:41:58.467Z,5.85
2023-04-23T03:44:32.619Z,6.03
2023-04-23T03:47:04.117Z,6.72
2023-04-23T03:49:36.777Z,5.82
2023-04-23T03:52:07.749Z,6.80
2023-04-23T03:54:44.786Z,6.30
2023-04-23T03:57:22.220Z,6.78
2023-04-23T04:00:15.096Z,6.38
2023-04-23T04:02:46.981Z,5.78
2023-04-23T04:05:18.193Z,5.97
2023-04-23T04:07:49.653Z,6.68
2023-04-23T04:10:24.079Z,6.60
2023-04-23T04:12:55.578Z,7.68
2023-04-23T04:15:26.615Z,6.85
2023-04-23T04:17:57.301Z,7.95
2023-04-23T04:20:29.093Z,6.90
2023-04-23T04:22:59.848Z,6.72
2023-04-23T04:25:33.597Z,6.55
2023-04-23T04:28:05.412Z,6.30
2023-04-23T04:30:36.242Z,6.53
2023-04-23T04:33:07.072Z,5.70
2023-04-23T04:35:38.268Z,6.40
2023-04-23T04:38:09.207Z,6.47
2023-04-23T04:40:42.634Z,5.85
2023-04-23T04:43:13.366Z,6.25
2023-04-23T04:45:45.134Z,6.47
2023-04-23T04:48:15.841Z,6.18
2023-04-23T04:50:46.849Z,6.65
2023-04-23T04:53:17.505Z,6.90
2023-04-23T04:55:50.854Z,6.20
2023-04-23T04:58:21.834Z,5.95
2023-04-23T05:00:53.855Z,5.60
2023-04-23T05:03:25.002Z,5.95
2023-04-23T05:05:56.719Z,5.72
2023-04-23T05:08:27.502Z,6.63
2023-04-23T05:11:01.172Z,6.13
2023-04-23T05:13:32.010Z,5.43
2023-04-23T05:16:02.769Z,5.53
2023-04-23T05:18:33.618Z,5.60
2023-04-23T05:21:04.514Z,5.03
2023-04-23T05:23:35.432Z,4.40
2023-04-23T05:26:08.935Z,5.18
2023-04-23T05:28:39.918Z,4.25
2023-04-23T05:31:10.707Z,4.78
2023-04-23T05:33:49.852Z,4.47
2023-04-23T05:36:21.478Z,4.57
2023-04-23T05:38:52.147Z,5.05
2023-04-23T05:41:27.428Z,4.40
2023-04-23T05:43:58.542Z,4.18
2023-04-23T05:46:29.710Z,4.38
2023-04-23T05:49:00.574Z,4.40
2023-04-23T05:51:31.363Z,4.07
2023-04-23T05:54:02.090Z,4.45
2023-04-23T05:56:35.562Z,4.35
2023-04-23T05:59:06.526Z,4.82
2023-04-23T06:01:37.369Z,4.05
2023-04-23T06:04:08.351Z,4.65
2023-04-23T06:06:39.638Z,4.25
2023-04-23T06:09:10.342Z,4.30
2023-04-23T06:11:43.821Z,4.38
2023-04-23T06:14:15.038Z,5.28
2023-04-23T06:16:45.810Z,4.80
2023-04-23T06:19:16.937Z,4.53
2023-04-23T06:21:47.902Z,4.88
2023-04-23T06:24:18.665Z,5.70
2023-04-23T06:26:52.196Z,5.57
2023-04-23T06:29:24.932Z,5.63
2023-04-23T06:32:05.473Z,5.68
2023-04-23T06:34:37.430Z,5.85
2023-04-23T06:37:12.595Z,5.20
2023-04-23T06:39:43.461Z,6.00
2023-04-23T06:42:16.966Z,5.50
2023-04-23T06:44:53.520Z,5.10
2023-04-23T06:47:24.342Z,4.88
2023-04-23T06:49:55.325Z,5.47
2023-04-23T06:52:26.073Z,4.75
2023-04-23T06:54:56.846Z,4.35
2023-04-23T06:57:30.240Z,4.72
2023-04-23T07:00:00.969Z,4.00
2023-04-23T07:02:39.069Z,3.30
2023-04-23T07:05:10.769Z,3.58
2023-04-23T07:07:43.636Z,3.28
2023-04-23T07:10:17.456Z,3.47
2023-04-23T07:12:53.142Z,3.15
2023-04-23T07:15:24.142Z,3.00
2023-04-23T07:17:55.014Z,3.10
2023-04-23T07:20:26.646Z,3.35
2023-04-23T07:22:57.491Z,3.20
2023-04-23T07:25:28.327Z,2.95
2023-04-23T07:28:01.747Z,2.67
2023-04-23T07:30:34.190Z,2.65
2023-04-23T07:33:05.223Z,2.30
2023-04-23T07:35:36.037Z,2.60
2023-04-23T07:38:07.572Z,2.15
2023-04-23T07:40:38.266Z,2.45
2023-04-23T07:43:11.727Z,2.80
2023-04-23T07:45:42.462Z,2.38
2023-04-23T07:48:13.581Z,2.47
2023-04-23T07:50:44.390Z,2.53
2023-04-23T07:53:15.320Z,2.10
2023-04-23T07:55:46.036Z,2.70
2023-04-23T07:58:19.489Z,2.50
2023-04-23T08:00:50.407Z,2.38
2023-04-23T08:03:21.626Z,2.03
2023-04-23T08:05:52.586Z,2.30
2023-04-23T08:08:23.492Z,2.60
2023-04-23T08:10:54.186Z,2.45
2023-04-23T08:13:27.720Z,2.25
2023-04-23T08:15:58.482Z,2.83
2023-04-23T08:18:29.271Z,2.80
2023-04-23T08:21:00.494Z,2.75
2023-04-23T08:23:31.559Z,2.72
2023-04-23T08:26:03.171Z,2.65
2023-04-23T08:28:36.457Z,2.25
2023-04-23T08:31:19.000Z,3.00
2023-04-23T08:33:56.232Z,3.10
2023-04-23T08:36:27.883Z,2.80
2023-04-23T08:38:58.718Z,2.35
2023-04-23T08:41:36.198Z,2.60
2023-04-23T08:44:15.370Z,2.38
2023-04-23T08:46:47.578Z,2.20
2023-04-23T08:49:19.658Z,2.60
2023-04-23T08:51:53.670Z,3.50
2023-04-23T08:54:29.941Z,2.88
2023-04-23T08:57:02.322Z,2.60
2023-04-23T08:59:35.885Z,2.33
2023-04-23T09:02:10.423Z,2.50
2023-04-23T09:07:12.928Z,2.60
2023-04-23T09:09:44.453Z,2.30
2023-04-23T09:12:15.865Z,2.83
2023-04-23T09:14:49.239Z,2.83
2023-04-23T09:17:21.583Z,2.60
2023-04-23T09:19:54.406Z,2.80
2023-04-23T09:22:46.198Z,2.70
2023-04-23T09:25:19.590Z,2.90
2023-04-23T09:27:52.604Z,2.80
2023-04-23T09:30:27.806Z,2.60
2023-04-23T09:32:58.770Z,3.00
2023-04-23T09:35:31.655Z,2.20
2023-04-23T09:38:06.408Z,2.85
2023-04-23T09:40:38.243Z,2.47
2023-04-23T09:43:10.053Z,3.75
2023-04-23T09:45:51.518Z,3.53
2023-04-23T09:48:24.092Z,3.88
2023-04-23T09:50:58.435Z,2.85
2023-04-23T09:53:30.182Z,2.50
2023-04-23T09:56:01.041Z,2.88
2023-04-23T09:58:31.892Z,3.70
2023-04-23T10:01:13.359Z,3.10
2023-04-23T10:03:46.233Z,4.28
2023-04-23T10:06:39.700Z,3.33
2023-04-23T10:09:10.228Z,3.10
2023-04-23T10:11:41.369Z,2.78
2023-04-23T10:14:12.858Z,2.90
2023-04-23T10:16:49.851Z,3.10
2023-04-23T10:19:23.467Z,4.32
2023-04-23T10:22:08.648Z,2.60
2023-04-23T10:24:56.658Z,3.53
2023-04-23T10:27:44.633Z,3.53
2023-04-23T10:30:20.225Z,2.97
2023-04-23T10:32:54.409Z,3.30
2023-04-23T10:35:25.158Z,2.80
2023-04-23T10:37:56.699Z,3.33
2023-04-23T10:40:33.689Z,2.65
2023-04-23T10:43:05.021Z,3.38
2023-04-23T10:45:35.736Z,3.30
2023-04-23T10:48:09.197Z,3.00
2023-04-23T10:51:00.293Z,3.38
2023-04-23T10:53:35.117Z,3.17
2023-04-23T10:56:10.517Z,3.60
2023-04-23T10:58:53.577Z,3.22
2023-04-23T11:01:27.960Z,3.17
2023-04-23T11:04:01.653Z,3.17
2023-04-23T11:07:07.334Z,4.32
2023-04-23T11:09:44.591Z,3.43
2023-04-23T11:12:17.285Z,3.05
2023-04-23T11:14:51.746Z,3.03
2023-04-23T11:17:26.496Z,2.90
2023-04-23T11:20:14.539Z,2.60
2023-04-23T11:22:46.664Z,2.20
2023-04-23T11:25:19.461Z,2.20
2023-04-23T11:27:51.574Z,2.53
2023-04-23T11:30:24.308Z,2.72
2023-04-23T11:32:57.554Z,5.40
2023-04-23T11:35:39.890Z,2.97
2023-04-23T11:38:12.290Z,2.30
2023-04-23T11:40:43.533Z,3.08
2023-04-23T11:43:15.032Z,3.00
2023-04-23T11:45:46.603Z,3.05
2023-04-23T11:48:17.305Z,2.67
2023-04-23T11:50:50.808Z,2.10
2023-04-23T11:53:21.972Z,2.30
2023-04-23T11:55:52.753Z,2.90
2023-04-23T11:58:23.492Z,2.65
2023-04-23T12:01:02.517Z,2.60
2023-04-23T12:03:33.614Z,2.58
2023-04-23T12:06:08.056Z,3.00
2023-04-23T12:08:43.264Z,2.70
2023-04-23T12:11:15.636Z,2.47
2023-04-23T12:13:48.473Z,2.28
2023-04-23T12:16:19.307Z,2.72
2023-04-23T12:18:50.014Z,2.60
2023-04-23T12:21:25.986Z,2.65
2023-04-23T12:23:57.093Z,2.30
2023-04-23T12:26:29.808Z,2.35
2023-04-23T12:29:02.670Z,2.90
2023-04-23T12:31:33.660Z,2.63
2023-04-23T12:34:06.733Z,2.30
2023-04-23T12:36:41.489Z,2.00
2023-04-23T12:39:34.710Z,2.30
2023-04-23T12:42:08.449Z,2.22
2023-04-23T12:44:40.800Z,2.35
2023-04-23T12:47:15.446Z,2.00
2023-04-23T12:49:46.217Z,2.70
2023-04-23T12:52:19.770Z,3.25
2023-04-23T12:54:52.450Z,3.15
2023-04-23T12:57:24.810Z,2.58
2023-04-23T12:59:55.788Z,2.55
2023-04-23T13:02:28.344Z,2.55
2023-04-23T13:05:01.530Z,3.35
2023-04-23T13:07:36.805Z,2.60
2023-04-23T13:10:08.059Z,2.72
2023-04-23T13:12:39.044Z,2.83
2023-04-23T13:15:13.041Z,2.55
2023-04-23T13:17:44.257Z,2.83
2023-04-23T13:20:15.162Z,2.50
2023-04-23T13:22:48.702Z,2.58
2023-04-23T13:25:19.740Z,2.50
2023-04-23T13:27:50.683Z,2.78
2023-04-23T13:30:21.421Z,2.35
2023-04-23T13:32:52.154Z,2.03
2023-04-23T13:35:23.068Z,2.20
2023-04-23T13:37:56.557Z,2.25
2023-04-23T13:40:27.242Z,1.92
2023-04-23T13:42:58.090Z,1.90
2023-04-23T13:45:29.789Z,2.00
2023-04-23T13:48:02.685Z,2.78
2023-04-23T13:50:33.650Z,2.72
2023-04-23T13:53:07.229Z,2.40
2023-04-23T13:55:38.113Z,2.20
2023-04-23T13:58:12.198Z,2.40
2023-04-23T14:00:43.241Z,2.50
2023-04-23T14:03:14.233Z,2.65
2023-04-23T14:05:45.126Z,2.67
2023-04-23T14:08:18.522Z,2.63
2023-04-23T14:10:49.581Z,2.90
2023-04-23T14:13:20.393Z,2.90
2023-04-23T14:15:51.189Z,3.00
2023-04-23T14:18:22.078Z,2.90
2023-04-23T14:20:52.957Z,2.60
2023-04-23T14:23:52.466Z,2.90
2023-04-23T14:29:14.258Z,2.72
2023-04-23T14:31:44.900Z,2.30
2023-04-23T14:34:15.805Z,3.00
2023-04-23T14:36:49.558Z,2.47
2023-04-23T14:39:26.166Z,2.45
2023-04-23T14:41:56.991Z,2.45
2023-04-23T14:44:28.027Z,2.42
2023-04-23T14:46:59.350Z,3.05
2023-04-23T14:49:30.281Z,2.72
2023-04-23T14:52:01.095Z,2.63
2023-04-23T14:54:36.555Z,2.90
2023-04-23T14:57:07.845Z,2.65
2023-04-23T14:59:38.738Z,2.35
2023-04-23T15:02:09.783Z,2.30
2023-04-23T15:04:40.708Z,2.70
2023-04-23T15:07:11.648Z,2.63
2023-04-23T15:09:45.049Z,2.40
2023-04-23T15:12:45.492Z,2.47
2023-04-23T15:15:36.915Z,2.30
2023-04-23T15:18:14.621Z,2.20
2023-04-23T15:20:45.557Z,2.45
2023-04-23T15:23:16.388Z,2.75
2023-04-23T15:25:49.811Z,2.70
2023-04-23T15:28:21.264Z,3.38
2023-04-23T15:30:52.187Z,2.97
2023-04-23T15:33:23.165Z,4.80
2023-04-23T15:35:53.974Z,3.83
2023-04-23T15:38:24.709Z,2.80
2023-04-23T15:40:59.119Z,3.10
2023-04-23T15:43:30.495Z,3.70
2023-04-23T15:46:01.809Z,2.80
2023-04-23T15:48:32.647Z,2.45
2023-04-23T15:51:03.618Z,2.97
2023-04-23T15:53:34.527Z,3.05
2023-04-23T15:56:07.970Z,3.38
2023-04-23T15:58:38.664Z,3.90
2023-04-23T16:01:10.287Z,2.58
2023-04-23T16:03:44.042Z,3.05
2023-04-23T16:06:21.188Z,2.83
2023-04-23T16:08:51.952Z,3.55
2023-04-23T16:11:27.919Z,3.58
2023-04-23T16:13:58.966Z,3.72
2023-04-23T16:16:31.134Z,3.10
2023-04-23T16:19:02.321Z,3.30
2023-04-23T16:21:33.059Z,2.75
2023-04-23T16:24:04.218Z,3.10
2023-04-23T16:26:37.795Z,2.65
2023-04-23T16:29:21.366Z,2.95
2023-04-23T16:31:53.142Z,2.70
2023-04-23T16:34:23.886Z,2.60
2023-04-23T16:36:54.831Z,2.50
2023-04-23T16:39:25.591Z,2.83
2023-04-23T16:41:59.020Z,3.72
2023-04-23T16:44:29.843Z,3.28
2023-04-23T16:47:00.714Z,3.05
2023-04-23T16:49:31.571Z,2.90
2023-04-23T16:52:03.768Z,3.30
2023-04-23T16:54:36.453Z,3.20
2023-04-23T16:57:09.842Z,3.40
2023-04-23T16:59:41.189Z,3.50
2023-04-23T17:02:12.120Z,3.80
2023-04-23T17:04:43.359Z,3.10
2023-04-23T17:07:14.546Z,4.03
2023-04-23T17:09:45.300Z,3.72
2023-04-23T17:12:19.008Z,2.80
2023-04-23T17:14:49.733Z,3.22
2023-04-23T17:17:20.472Z,3.22
2023-04-23T17:19:51.431Z,3.15
2023-04-23T17:22:22.240Z,3.00
2023-04-23T17:24:53.108Z,2.90
2023-04-23T17:27:26.764Z,2.60
2023-04-23T17:29:57.534Z,2.55
2023-04-23T17:32:28.456Z,6.03
2023-04-23T17:35:09.488Z,7.88
2023-04-23T17:37:41.312Z,7.85
2023-04-23T17:40:13.730Z,8.63
2023-04-23T17:42:47.062Z,10.55
2023-04-23T17:45:18.818Z,9.65
2023-04-23T17:47:49.894Z,11.15
2023-04-23T17:50:20.765Z,10.38
2023-04-23T17:52:51.871Z,10.65
2023-04-23T17:55:23.567Z,9.82
2023-04-23T17:57:57.283Z,10.75
2023-04-23T18:00:29.052Z,10.73
2023-04-23T18:03:00.835Z,9.10
2023-04-23T18:05:31.865Z,9.68
2023-04-23T18:08:02.919Z,10.30
2023-04-23T18:10:33.744Z,11.18
2023-04-23T18:13:11.924Z,10.60
2023-04-23T18:15:42.609Z,10.60
2023-04-23T18:18:13.481Z,9.95
2023-04-23T18:20:44.424Z,10.85
2023-04-23T18:23:15.452Z,10.43
2023-04-23T18:25:46.350Z,11.93
2023-04-23T18:28:19.700Z,11.25
2023-04-23T18:30:50.482Z,10.55
2023-04-23T18:33:39.098Z,10.65
2023-04-23T18:36:23.027Z,11.18
2023-04-23T18:38:53.826Z,10.63
2023-04-23T18:41:24.507Z,9.98
2023-04-23T18:44:00.050Z,10.57
2023-04-23T18:46:31.897Z,10.18
2023-04-23T18:49:07.357Z,9.32
2023-04-23T18:54:15.162Z,10.02
2023-04-23T18:56:45.917Z,9.98
2023-04-23T18:59:20.067Z,8.57
2023-04-23T19:01:50.929Z,10.02
2023-04-23T19:04:21.860Z,10.27
2023-04-23T19:06:52.746Z,8.63
2023-04-23T19:09:24.051Z,8.75
2023-04-23T19:11:55.004Z,8.70
2023-04-23T19:14:28.444Z,8.65
2023-04-23T19:16:59.236Z,8.70
2023-04-23T19:19:32.358Z,9.18
2023-04-23T19:22:04.144Z,8.85
2023-04-23T19:24:35.265Z,8.18
2023-04-23T19:27:07.151Z,7.72
2023-04-23T19:29:41.377Z,8.75
2023-04-23T19:32:12.339Z,7.80
2023-04-23T19:34:43.169Z,3.78
2023-04-23T19:37:13.877Z,9.15
2023-04-23T19:39:44.775Z,6.97
2023-04-23T19:42:15.612Z,6.68
2023-04-23T19:44:50.073Z,7.03
2023-04-23T19:47:20.850Z,6.67
2023-04-23T19:49:51.716Z,6.28
2023-04-23T19:52:26.135Z,6.70
2023-04-23T19:54:57.074Z,6.65
2023-04-23T19:57:27.803Z,6.95
2023-04-23T20:00:01.936Z,8.23
2023-04-23T20:02:38.763Z,7.25
2023-04-23T20:05:11.646Z,6.60
2023-04-23T20:07:42.451Z,6.40
2023-04-23T20:10:15.705Z,7.28
2023-04-23T20:12:47.682Z,5.50
2023-04-23T20:15:24.628Z,6.95
2023-04-23T20:17:55.773Z,5.40
2023-04-23T20:20:26.722Z,6.70
2023-04-23T20:22:57.628Z,6.25
2023-04-23T20:25:28.562Z,4.80
2023-04-23T20:27:59.937Z,7.28
2023-04-23T20:30:33.314Z,5.40
2023-04-23T20:33:04.033Z,4.88
2023-04-23T20:35:35.758Z,5.03
2023-04-23T20:38:06.598Z,4.63
2023-04-23T20:40:37.508Z,4.70
2023-04-23T20:43:08.754Z,4.45
2023-04-23T20:45:43.354Z,6.10
2023-04-23T20:48:14.646Z,5.70
2023-04-23T20:50:45.468Z,6.65
2023-04-23T20:53:16.319Z,5.90
2023-04-23T20:55:47.402Z,5.40
2023-04-23T20:58:18.297Z,4.40
2023-04-23T21:00:51.689Z,3.47
2023-04-23T21:03:22.661Z,3.10
2023-04-23T21:05:54.143Z,3.97
2023-04-23T21:08:24.804Z,3.40
2023-04-23T21:10:55.659Z,3.58
2023-04-23T21:13:26.893Z,3.15
2023-04-23T21:16:00.442Z,3.50
2023-04-23T21:18:31.230Z,3.15
2023-04-23T21:21:02.321Z,3.67
2023-04-23T21:23:33.221Z,3.35
2023-04-23T21:26:03.938Z,3.67
2023-04-23T21:28:35.029Z,4.35
2023-04-23T21:31:16.496Z,4.07
2023-04-23T21:33:47.298Z,3.15
2023-04-23T21:36:18.083Z,3.30
2023-04-23T21:38:48.756Z,3.47
2023-04-23T21:41:19.535Z,4.10
2023-04-23T21:43:50.268Z,3.97
2023-04-23T21:46:24.417Z,3.65
2023-04-23T21:48:55.203Z,3.28
2023-04-23T21:51:26.514Z,3.50
2023-04-23T21:53:57.304Z,3.97
2023-04-23T21:56:28.210Z,3.60
2023-04-23T21:58:59.365Z,3.53
2023-04-23T22:01:34.368Z,3.92
2023-04-23T22:04:08.912Z,3.70
2023-04-23T22:06:41.889Z,3.70
2023-04-23T22:09:13.289Z,3.17
2023-04-23T22:11:55.282Z,3.97
2023-04-23T22:14:32.605Z,3.70
2023-04-23T22:17:09.409Z,3.83
2023-04-23T22:19:40.699Z,4.03
2023-04-23T22:22:11.724Z,3.92
2023-04-23T22:24:42.672Z,4.10
2023-04-23T22:27:13.649Z,3.90
2023-04-23T22:29:44.770Z,4.05
2023-04-23T22:32:18.287Z,4.10
2023-04-23T22:34:49.221Z,3.53
2023-04-23T22:37:20.149Z,4.28
2023-04-23T22:39:51.098Z,4.10
2023-04-23T22:42:21.826Z,3.85
2023-04-23T22:44:52.551Z,3.88
2023-04-23T22:47:26.172Z,4.20
2023-04-23T22:49:57.498Z,4.20
2023-04-23T22:52:28.871Z,4.10
2023-04-23T22:54:59.857Z,3.90
2023-04-23T22:57:31.057Z,3.83
2023-04-23T23:00:02.035Z,3.72
2023-04-23T23:02:38.338Z,3.75
2023-04-23T23:05:12.847Z,4.55
2023-04-23T23:07:46.818Z,3.87
2023-04-23T23:10:17.526Z,3.60
2023-04-23T23:12:48.373Z,4.47
2023-04-23T23:15:19.054Z,3.67
2023-04-23T23:17:52.861Z,4.72
2023-04-23T23:20:23.780Z,4.28
2023-04-23T23:22:54.831Z,3.67
2023-04-23T23:25:28.555Z,3.88
2023-04-23T23:27:59.395Z,3.55
2023-04-23T23:30:30.103Z,4.05
2023-04-23T23:33:04.002Z,4.40
2023-04-23T23:35:34.851Z,3.90
2023-04-23T23:38:05.724Z,3.80
2023-04-23T23:40:36.512Z,3.47
2023-04-23T23:43:07.379Z,3.75
2023-04-23T23:45:38.194Z,3.85
2023-04-23T23:48:11.839Z,3.58
2023-04-23T23:50:42.852Z,3.90
2023-04-23T23:53:13.654Z,3.45
2023-04-23T23:55:44.303Z,3.95
2023-04-23T23:58:15.058Z,4.03
